Time;durP1;ratioP1;P1;durP2;ratioP2;P2;SDS_P1;SDS_P2;PMS_P1;PMS_P2;Temp;Humidity;BMP_temperature;BMP_pressure;BME280_temperature;BME280_humidity;BME280_pressure;Samples;Min_cycle;Max_cycle;Signal;HPM_P1;HPM_P2
2022/12/17 13:06:53;;;;;;;;;;;;;;;;;;7368705;19;858;-64
2022/12/17 13:09:22;;;;;;;;;;;;;;;;;;7368324;19;875;-65
2022/12/17 13:11:50;;;;;;;;;;;;;;;;;;7369109;19;786;-65
2022/12/17 13:14:18;;;;;;;;;;;;;;;;;;7369664;19;1838;-65
2022/12/17 13:16:46;;;;;;;;;;;;;;;;;;7370508;19;1716;-66
2022/12/17 13:19:14;;;;;;;;;;;;;;;;;;7364036;19;1303;-65
2022/12/17 13:21:42;;;;;;;;;;;;;;;;;;7370927;19;1804;-67
2022/12/17 13:24:10;;;;;;;;;;;;;;;;;;7368184;19;1944;-64
2022/12/17 13:26:39;;;;;;;;;;;;;;;;;;7368699;19;874;-65
2022/12/17 13:29:07;;;;;;;;;;;;;;;;;;7365345;19;1299;-67
2022/12/17 13:31:35;;;;;;;;;;;;;;;;;;7368169;19;812;-66
2022/12/17 13:34:03;;;;;;;;;;;;;;;;;;7369042;19;862;-65
2022/12/17 13:36:31;;;;;;;;;;;;;;;;;;7368863;19;827;-65
2022/12/17 13:38:59;;;;;;;;;;;;;;;;;;7364118;19;1311;-65
2022/12/17 13:41:27;;;;;;;;;;;;;;;;;;7368356;19;858;-65
2022/12/17 13:43:56;;;;;;;;;;;;;;;;;;7365894;19;1859;-64
2022/12/17 13:46:24;;;;;;;;;;;;;;;;;;7368865;19;931;-64
2022/12/17 13:48:52;;;;;;;;;;;;;;;;;;7365875;19;1278;-64
2022/12/17 13:51:20;;;;;;;;;;;;;;;;;;7369527;19;862;-64
2022/12/17 13:53:49;;;;;;;;;;;;;;;;;;7367540;19;861;-65
2022/12/17 13:56:17;;;;;;;;;;;;;;;;;;7368221;19;810;-65
2022/12/17 13:58:45;;;;;;;;;;;;;;;;;;7363874;19;1338;-66
2022/12/17 14:01:13;;;;;;;;;;;;;;;;;;7367656;19;787;-65
2022/12/17 14:03:41;;;;;;;;;;;;;;;;;;7365760;19;1842;-64
2022/12/17 14:06:09;;;;;;;;;;;;;;;;;;7367811;19;827;-65
2022/12/17 14:08:37;;;;;;;;;;;;;;;;;;7363547;19;1371;-66
2022/12/17 14:13:46;;;;;;;;;;;;;;;;;;7367637;19;826;-65
2022/12/17 14:16:14;;;;;;;;;;;;;;;;;;7367677;19;866;-65
2022/12/17 14:18:42;;;;;;;;;;;;;;;;;;7364882;19;1333;-65
2022/12/17 14:21:11;;;;;;;;;;;;;;;;;;7367057;19;812;-65
2022/12/17 14:23:39;;;;;;;;;;;;;;;;;;7365260;19;1845;-64
2022/12/17 14:26:07;;;;;;;;;;;;;;;;;;7367878;19;771;-65
2022/12/17 14:28:35;;;;;;;;;;;;;;;;;;7364220;19;1280;-65
2022/12/17 14:31:03;;;;;;;;;;;;;;;;;;7367831;19;747;-65
2022/12/17 14:33:31;;;;;;;;;;;;;;;;;;7367168;19;811;-65
2022/12/17 14:35:59;;;;;;;;;;;;;;;;;;7366634;19;737;-65
2022/12/17 14:38:28;;;;;;;;;;;;;;;;;;7361685;19;1286;-64
2022/12/17 14:40:56;;;;;;;;;;;;;;;;;;7366214;19;862;-64
2022/12/17 14:43:24;;;;;;;;;;;;;;;;;;7365036;19;1850;-64
2022/12/17 14:51:13;;;;;;;;;;;;;;;;;;7366237;19;1182;-65
2022/12/17 14:53:41;;;;;;;;;;;;;;;;;;7366383;19;878;-65
2022/12/17 14:56:09;;;;;;;;;;;;;;;;;;7366420;19;775;-65
2022/12/17 14:58:37;;;;;;;;;;;;;;;;;;7363414;19;1325;-65
2022/12/17 15:01:05;;;;;;;;;;;;;;;;;;7366172;19;828;-65
2022/12/17 15:03:34;;;;;;;;;;;;;;;;;;7365222;19;1818;-65
2022/12/17 15:06:03;;;;;;;;;;;;;;;;;;7366683;19;921;-65
2022/12/17 15:08:31;;;;;;;;;;;;;;;;;;7364369;19;1283;-65
2022/12/17 15:10:59;;;;;;;;;;;;;;;;;;7370446;19;810;-65
2022/12/17 15:13:27;;;;;;;;;;;;;;;;;;7370846;19;1021;-67
2022/12/17 15:15:55;;;;;;;;;;;;;;;;;;7371917;19;763;-65
2022/12/17 15:18:23;;;;;;;;;;;;;;;;;;7370809;19;2147;-66
2022/12/17 15:20:51;;;;;;;;;;;;;;;;;;7375115;19;1702;-67
2022/12/17 15:23:20;;;;;;;;;;;;;;;;;;7370444;19;1853;-66
2022/12/17 15:25:48;;;;;;;;;;;;;;;;;;7369720;19;830;-66
2022/12/17 15:28:16;;;;;;;;;;;;;;;;;;7369490;19;1258;-66
2022/12/17 15:30:44;;;;;;;;;;;;;;;;;;7374110;19;1902;-66
2022/12/17 15:33:12;;;;;;;;;;;;;;;;;;7374600;19;1880;-65
2022/12/17 15:35:40;;;;;;;;;;;;;;;;;;7370920;19;871;-66
2022/12/17 15:38:08;;;;;;;;;;;;;;;;;;7369878;19;1328;-66
2022/12/17 15:40:36;;;;;;;;;;;;;;;;;;7371319;19;827;-65
2022/12/17 15:43:11;;;;;;;;;;;;;;;;;;7372259;19;1851;-65
2022/12/17 15:45:39;;;;;;;;;;;;;;;;;;7372170;19;779;-65
2022/12/17 15:48:09;;;;;;;;;;;;;;;;;;7370364;19;1533;-65
2022/12/17 15:50:37;;;;;;;;;;;;;;;;;;7371095;19;832;-66
2022/12/17 15:53:05;;;;;;;;;;;;;;;;;;7368636;19;1900;-65
2022/12/17 15:55:33;;;;;;;;;;;;;;;;;;7374774;19;1720;-65
2022/12/17 15:58:01;;;;;;;;;;;;;;;;;;7368881;19;1659;-65
2022/12/17 16:00:30;;;;;;;;;;;;;;;;;;7374972;19;1912;-65
2022/12/17 16:02:58;;;;;;;;;;;;;;;;;;7370040;19;1838;-64
2022/12/17 16:05:26;;;;;;;;;;;;;;;;;;7369909;19;795;-64
2022/12/17 16:07:57;;;;;;;;;;;;;;;;;;7369103;19;1310;-64
2022/12/17 16:10:25;;;;;;;;;;;;;;;;;;7370238;19;798;-63
2022/12/17 16:12:54;;;;;;;;;;;;;;;;;;7371895;19;1884;-64
2022/12/17 16:15:22;;;;;;;;;;;;;;;;;;7371563;19;836;-63
2022/12/17 16:17:50;;;;;;;;;;;;;;;;;;7367984;19;1248;-64
2022/12/17 16:20:18;;;;;;;;;;;;;;;;;;7369976;19;790;-66
2022/12/17 16:22:46;;;;;;;;;;;;;;;;;;7370498;19;801;-66
2022/12/17 16:25:14;;;;;;;;;;;;;;;;;;7371081;19;893;-65
2022/12/17 16:27:42;;;;;;;;;;;;;;;;;;7371337;19;2222;-65
2022/12/17 16:30:11;;;;;;;;;;;;;;;;;;7370034;19;878;-64
2022/12/17 16:32:39;;;;;;;;;;;;;;;;;;7370169;19;1001;-64
2022/12/17 16:35:07;;;;;;;;;;;;;;;;;;7369444;19;791;-64
2022/12/17 16:37:35;;;;;;;;;;;;;;;;;;7367933;19;1270;-64
2022/12/17 16:40:03;;;;;;;;;;;;;;;;;;7368988;19;883;-64
2022/12/17 16:42:31;;;;;;;;;;;;;;;;;;7373628;19;1734;-65
2022/12/17 16:44:59;;;;;;;;;;;;;;;;;;7366391;19;1869;-65
2022/12/17 16:47:28;;;;;;;;;;;;;;;;;;7368000;19;1259;-64
2022/12/17 16:49:56;;;;;;;;;;;;;;;;;;7373083;19;1929;-65
2022/12/17 16:52:24;;;;;;;;;;;;;;;;;;7368805;19;948;-65
2022/12/17 16:54:52;;;;;;;;;;;;;;;;;;7369782;19;1843;-66
2022/12/17 16:57:20;;;;;;;;;;;;;;;;;;7369408;19;1274;-66
2022/12/17 16:59:48;;;;;;;;;;;;;;;;;;7368340;19;870;-66
2022/12/17 17:02:16;;;;;;;;;;;;;;;;;;7368447;19;833;-65
2022/12/17 17:04:45;;;;;;;;;;;;;;;;;;7366998;19;1842;-65
2022/12/17 17:07:13;;;;;;;;;;;;;;;;;;7368576;19;1298;-65
2022/12/17 17:09:41;;;;;;;;;;;;;;;;;;7369130;19;1857;-66
2022/12/17 17:12:10;;;;;;;;;;;;;;;;;;7369916;19;1830;-64
2022/12/17 17:14:39;;;;;;;;;;;;;;;;;;7369701;19;926;-64
2022/12/17 17:17:07;;;;;;;;;;;;;;;;;;7366987;19;1232;-65
2022/12/17 17:19:35;;;;;;;;;;;;;;;;;;7367180;19;726;-64
2022/12/17 17:22:03;;;;;;;;;;;;;;;;;;7372376;19;1831;-64
2022/12/17 17:24:31;;;;;;;;;;;;;;;;;;7367975;19;1905;-64
2022/12/17 17:26:59;;;;;;;;;;;;;;;;;;7368170;19;1761;-65
2022/12/17 17:29:27;;;;;;;;;;;;;;;;;;7367395;19;818;-64
2022/12/17 17:31:56;;;;;;;;;;;;;;;;;;7368412;19;1741;-65
2022/12/17 17:34:24;;;;;;;;;;;;;;;;;;7366123;19;840;-64
2022/12/17 17:36:52;;;;;;;;;;;;;;;;;;7367810;19;901;-63
2022/12/17 17:39:20;;;;;;;;;;;;;;;;;;7367517;19;1908;-65
2022/12/17 17:41:48;;;;;;;;;;;;;;;;;;7368507;19;836;-65
2022/12/17 17:44:16;;;;;;;;;;;;;;;;;;7366504;19;1850;-64
2022/12/17 17:46:44;;;;;;;;;;;;;;;;;;7367470;19;1878;-65
2022/12/17 17:49:12;;;;;;;;;;;;;;;;;;7368750;19;1632;-63
2022/12/17 17:51:42;;;;;;;;;;;;;;;;;;7366342;19;800;-64
2022/12/17 17:54:10;;;;;;;;;;;;;;;;;;7367459;19;799;-65
2022/12/17 17:56:38;;;;;;;;;;;;;;;;;;7367758;19;759;-65
2022/12/17 17:59:06;;;;;;;;;;;;;;;;;;7364268;19;1298;-65
2022/12/17 18:01:34;;;;;;;;;;;;;;;;;;7367963;19;1645;-65
2022/12/17 18:04:02;;;;;;;;;;;;;;;;;;7366958;19;1839;-65
2022/12/17 18:06:31;;;;;;;;;;;;;;;;;;7365813;19;870;-65
2022/12/17 18:08:59;;;;;;;;;;;;;;;;;;7364127;19;1258;-65
2022/12/17 18:11:27;;;;;;;;;;;;;;;;;;7367646;19;824;-64
2022/12/17 18:13:56;;;;;;;;;;;;;;;;;;7369097;19;1845;-64
2022/12/17 18:16:24;;;;;;;;;;;;;;;;;;7366509;19;865;-65
2022/12/17 18:18:52;;;;;;;;;;;;;;;;;;7361270;19;1256;-65
2022/12/17 18:21:20;;;;;;;;;;;;;;;;;;7366682;19;850;-64
2022/12/17 18:23:48;;;;;;;;;;;;;;;;;;7365895;19;1856;-66
2022/12/17 18:26:17;;;;;;;;;;;;;;;;;;7365760;19;763;-65
2022/12/17 18:28:45;;;;;;;;;;;;;;;;;;7366861;19;2098;-66
2022/12/17 18:31:13;;;;;;;;;;;;;;;;;;7366023;19;836;-65
2022/12/17 18:33:41;;;;;;;;;;;;;;;;;;7366447;19;823;-64
2022/12/17 18:36:09;;;;;;;;;;;;;;;;;;7369305;19;1877;-66
2022/12/17 18:38:37;;;;;;;;;;;;;;;;;;7363239;19;1271;-65
2022/12/17 18:43:21;;;;;;;;;;;;;;;;;;7366203;19;1601;-65
2022/12/17 18:43:51;;;;;;;;;;;;;;;;;;7365427;19;1857;-65
2022/12/17 18:46:20;;;;;;;;;;;;;;;;;;7364865;19;732;-64
2022/12/17 18:48:50;;;;;;;;;;;;;;;;;;7363836;19;1283;-65
2022/12/17 18:51:18;;;;;;;;;;;;;;;;;;7367957;19;809;-65
2022/12/17 18:53:46;;;;;;;;;;;;;;;;;;7365095;19;850;-65
2022/12/17 18:56:14;;;;;;;;;;;;;;;;;;7368567;19;1734;-66
2022/12/17 18:58:43;;;;;;;;;;;;;;;;;;7367336;19;1486;-66
2022/12/17 19:01:11;;;;;;;;;;;;;;;;;;7366580;19;861;-65
2022/12/17 19:03:40;;;;;;;;;;;;;;;;;;7367078;19;2046;-67
2022/12/17 19:06:08;;;;;;;;;;;;;;;;;;7370192;19;1912;-66
2022/12/17 19:08:36;;;;;;;;;;;;;;;;;;7363540;19;1274;-66
2022/12/17 19:11:04;;;;;;;;;;;;;;;;;;7369211;19;1882;-66
2022/12/17 19:13:32;;;;;;;;;;;;;;;;;;7366345;19;920;-66
2022/12/17 19:16:00;;;;;;;;;;;;;;;;;;7369061;19;1598;-66
2022/12/17 19:18:28;;;;;;;;;;;;;;;;;;7364685;19;1622;-66
2022/12/17 19:20:57;;;;;;;;;;;;;;;;;;7370009;19;1650;-66
2022/12/17 19:23:25;;;;;;;;;;;;;;;;;;7388098;19;1595;-66
2022/12/17 19:25:53;;;;;;;;;;;;;;;;;;7387803;19;1910;-65
2022/12/17 19:28:21;;;;;;;;;;;;;;;;;;7386361;19;1345;-66
2022/12/17 19:30:49;;;;;;;;;;;;;;;;;;7390088;19;1624;-65
2022/12/17 19:33:17;;;;;;;;;;;;;;;;;;7384381;19;736;-65
2022/12/17 19:35:46;;;;;;;;;;;;;;;;;;7388227;19;929;-66
2022/12/17 19:38:14;;;;;;;;;;;;;;;;;;7383449;19;1771;-66
2022/12/17 19:40:42;;;;;;;;;;;;;;;;;;7377644;19;857;-66
2022/12/17 19:43:10;;;;;;;;;;;;;;;;;;7365869;19;938;-66
2022/12/17 19:45:38;;;;;;;;;;;;;;;;;;7362603;19;1853;-66
2022/12/17 19:48:07;;;;;;;;;;;;;;;;;;7363548;19;1283;-66
2022/12/17 19:50:35;;;;;;;;;;;;;;;;;;7366232;19;849;-66
2022/12/17 19:53:04;;;;;;;;;;;;;;;;;;7369304;19;1699;-67
2022/12/17 19:55:32;;;;;;;;;;;;;;;;;;7366923;19;1886;-65
2022/12/17 19:58:00;;;;;;;;;;;;;;;;;;7368659;19;1330;-65
2022/12/17 20:00:28;;;;;;;;;;;;;;;;;;7371247;19;787;-65
2022/12/17 20:02:56;;;;;;;;;;;;;;;;;;7370883;19;824;-66
2022/12/17 20:05:24;;;;;;;;;;;;;;;;;;7371486;19;1890;-65
2022/12/17 20:07:52;;;;;;;;;;;;;;;;;;7373729;19;1943;-66
2022/12/17 20:10:21;;;;;;;;;;;;;;;;;;7370931;19;808;-66
2022/12/17 20:12:49;;;;;;;;;;;;;;;;;;7371400;19;866;-66
2022/12/17 20:15:17;;;;;;;;;;;;;;;;;;7373957;19;1781;-66
2022/12/17 20:17:45;;;;;;;;;;;;;;;;;;7369549;19;1271;-65
2022/12/17 20:20:13;;;;;;;;;;;;;;;;;;7375193;19;1891;-66
2022/12/17 20:22:41;;;;;;;;;;;;;;;;;;7370339;19;719;-66
2022/12/17 20:25:10;;;;;;;;;;;;;;;;;;7369869;19;1856;-65
2022/12/17 20:27:38;;;;;;;;;;;;;;;;;;7372257;19;1853;-67
2022/12/17 20:30:06;;;;;;;;;;;;;;;;;;7368519;19;798;-67
2022/12/17 20:32:34;;;;;;;;;;;;;;;;;;7371344;19;1837;-66
2022/12/17 20:35:02;;;;;;;;;;;;;;;;;;7370214;19;798;-66
2022/12/17 20:37:30;;;;;;;;;;;;;;;;;;7369900;19;1404;-66
2022/12/17 20:39:59;;;;;;;;;;;;;;;;;;7367819;19;837;-66
2022/12/17 20:42:27;;;;;;;;;;;;;;;;;;7369763;19;874;-65
2022/12/17 20:44:55;;;;;;;;;;;;;;;;;;7369075;19;1834;-65
2022/12/17 20:47:23;;;;;;;;;;;;;;;;;;7372216;19;1804;-66
2022/12/17 20:49:51;;;;;;;;;;;;;;;;;;7366906;19;835;-66
2022/12/17 20:52:19;;;;;;;;;;;;;;;;;;7370223;19;1838;-66
2022/12/17 20:54:48;;;;;;;;;;;;;;;;;;7368755;19;817;-66
2022/12/17 20:57:16;;;;;;;;;;;;;;;;;;7369352;19;1283;-66
2022/12/17 20:59:44;;;;;;;;;;;;;;;;;;7369604;19;866;-66
2022/12/17 21:02:12;;;;;;;;;;;;;;;;;;7369579;19;1756;-66
2022/12/17 21:04:40;;;;;;;;;;;;;;;;;;7371819;19;2196;-66
2022/12/17 21:07:08;;;;;;;;;;;;;;;;;;7370179;19;1833;-66
2022/12/17 21:09:36;;;;;;;;;;;;;;;;;;7368327;19;881;-65
2022/12/17 21:12:05;;;;;;;;;;;;;;;;;;7369512;19;819;-66
2022/12/17 21:14:33;;;;;;;;;;;;;;;;;;7369348;19;865;-65
2022/12/17 21:17:01;;;;;;;;;;;;;;;;;;7371363;19;1652;-66
2022/12/17 21:19:29;;;;;;;;;;;;;;;;;;7368384;19;715;-65
2022/12/17 21:21:57;;;;;;;;;;;;;;;;;;7368602;19;803;-65
2022/12/17 21:24:25;;;;;;;;;;;;;;;;;;7368994;19;1838;-65
2022/12/17 21:26:53;;;;;;;;;;;;;;;;;;7370893;19;2203;-65
2022/12/17 21:29:21;;;;;;;;;;;;;;;;;;7368758;19;1447;-66
2022/12/17 21:31:50;;;;;;;;;;;;;;;;;;7369047;19;774;-66
2022/12/17 21:34:20;;;;;;;;;;;;;;;;;;7368721;19;866;-66
2022/12/17 21:36:48;;;;;;;;;;;;;;;;;;7368872;19;947;-66
2022/12/17 21:39:16;;;;;;;;;;;;;;;;;;7365132;19;1321;-66
2022/12/17 21:43:00;;;;;;;;;;;;;;;;;;7372206;19;2314;-67
2022/12/17 21:44:32;;;;;;;;;;;;;;;;;;7368006;19;1837;-66
2022/12/17 21:47:01;;;;;;;;;;;;;;;;;;7368217;19;1845;-66
2022/12/17 21:49:29;;;;;;;;;;;;;;;;;;7365879;19;815;-65
2022/12/17 21:51:57;;;;;;;;;;;;;;;;;;7368013;19;874;-66
2022/12/17 21:54:26;;;;;;;;;;;;;;;;;;7368379;19;870;-65
2022/12/17 21:56:54;;;;;;;;;;;;;;;;;;7368899;19;1839;-66
2022/12/17 21:59:22;;;;;;;;;;;;;;;;;;7364239;19;1259;-66
2022/12/17 22:01:50;;;;;;;;;;;;;;;;;;7367866;19;783;-66
2022/12/17 22:04:18;;;;;;;;;;;;;;;;;;7367628;19;788;-66
2022/12/17 22:06:46;;;;;;;;;;;;;;;;;;7364747;19;1838;-66
2022/12/17 22:09:14;;;;;;;;;;;;;;;;;;7364878;19;1317;-66
2022/12/17 22:11:43;;;;;;;;;;;;;;;;;;7368029;19;840;-66
2022/12/17 22:14:10;;;;;;;;;;;;;;;;;;7370131;19;1838;-66
2022/12/17 22:16:40;;;;;;;;;;;;;;;;;;7368215;19;839;-66
2022/12/17 22:19:09;;;;;;;;;;;;;;;;;;7362657;19;1310;-66
2022/12/17 22:21:37;;;;;;;;;;;;;;;;;;7368060;19;786;-66
2022/12/17 22:24:05;;;;;;;;;;;;;;;;;;7366075;19;798;-65
2022/12/17 22:26:33;;;;;;;;;;;;;;;;;;7365571;19;1837;-66
2022/12/17 22:29:02;;;;;;;;;;;;;;;;;;7364560;19;1227;-66
2022/12/17 22:34:10;;;;;;;;;;;;;;;;;;7367912;19;831;-66
2022/12/17 22:36:38;;;;;;;;;;;;;;;;;;7367436;19;907;-66
2022/12/17 22:39:07;;;;;;;;;;;;;;;;;;7363953;19;1275;-66
2022/12/17 22:44:15;;;;;;;;;;;;;;;;;;7367420;19;839;-66
2022/12/17 22:46:44;;;;;;;;;;;;;;;;;;7365140;19;1871;-66
2022/12/17 22:49:12;;;;;;;;;;;;;;;;;;7363071;19;1278;-66
2022/12/17 22:51:40;;;;;;;;;;;;;;;;;;7369229;19;1617;-66
2022/12/17 22:54:08;;;;;;;;;;;;;;;;;;7366390;19;767;-67
2022/12/17 22:56:36;;;;;;;;;;;;;;;;;;7365148;19;818;-67
2022/12/17 22:59:04;;;;;;;;;;;;;;;;;;7363073;19;1287;-66
2022/12/17 23:01:32;;;;;;;;;;;;;;;;;;7366258;19;855;-67
2022/12/17 23:04:00;;;;;;;;;;;;;;;;;;7366461;19;1883;-67
2022/12/17 23:06:29;;;;;;;;;;;;;;;;;;7363195;19;1837;-66
2022/12/17 23:08:57;;;;;;;;;;;;;;;;;;7362736;19;1240;-66
2022/12/17 23:11:25;;;;;;;;;;;;;;;;;;7364539;19;826;-64
2022/12/17 23:13:54;;;;;;;;;;;;;;;;;;7366797;19;803;-66
2022/12/17 23:16:22;;;;;;;;;;;;;;;;;;7365227;19;800;-66
2022/12/17 23:18:50;;;;;;;;;;;;;;;;;;7361960;19;1291;-66
2022/12/17 23:21:18;;;;;;;;;;;;;;;;;;7368756;19;1855;-66
2022/12/17 23:23:46;;;;;;;;;;;;;;;;;;7364520;19;822;-66
2022/12/17 23:26:14;;;;;;;;;;;;;;;;;;7363712;19;1856;-66
2022/12/17 23:28:43;;;;;;;;;;;;;;;;;;7362384;19;1290;-66
2022/12/17 23:31:11;;;;;;;;;;;;;;;;;;7366708;19;803;-66
2022/12/17 23:33:39;;;;;;;;;;;;;;;;;;7372081;19;779;-66
2022/12/17 23:36:07;;;;;;;;;;;;;;;;;;7372060;19;807;-66
2022/12/17 23:38:35;;;;;;;;;;;;;;;;;;7374022;19;1867;-66
2022/12/17 23:41:03;;;;;;;;;;;;;;;;;;7371096;19;873;-66
2022/12/17 23:43:32;;;;;;;;;;;;;;;;;;7370995;19;795;-66
2022/12/17 23:46:00;;;;;;;;;;;;;;;;;;7369783;19;1837;-66
2022/12/17 23:48:28;;;;;;;;;;;;;;;;;;7368322;19;1283;-66
2022/12/17 23:50:56;;;;;;;;;;;;;;;;;;7370804;19;870;-66
2022/12/17 23:53:24;;;;;;;;;;;;;;;;;;7371258;19;1877;-65
2022/12/17 23:55:53;;;;;;;;;;;;;;;;;;7370698;19;765;-66
2022/12/17 23:58:21;;;;;;;;;;;;;;;;;;7368338;19;1353;-66
